Bandon, Oregon
Current Conditions -  °F | °C
As of 9:15 AM on Thursday 27 Nov 2014 (Local Time) from KOTH Reporting Station
Overcast Overcast  
Wind Chill: 54°   Ceiling: 4100
Heat Index: 54°   Visibility: 10mi
Dew Point: 54°   Wind: 5mph
Humidity: 100%   Direction: 140°SE
Pressure: 30.01"   Gusts: NA
Location:  43.12°N, 124.41°W
Report Text: KOTH 271715Z 14004KT 10SM BKN041 OVC050 12/12 A3001 RMK AO1
Loading
Personal Weather Stations






























Interactive Weather Map New forecast layout! Learn more

10-Day Weather Forecast

Advertisements
Track Severe Weather on mobile